sensor_id;sensor_type;location;lat;lon;timestamp;P1;durP1;ratioP1;P2;durP2;ratioP2
8171;SDS011;4127;47.908;10.850;2023-06-19T00:01:39;8.83;;;8.10;;
8171;SDS011;4127;47.908;10.850;2023-06-19T00:04:06;8.33;;;7.63;;
8171;SDS011;4127;47.908;10.850;2023-06-19T00:06:32;8.83;;;8.03;;
8171;SDS011;4127;47.908;10.850;2023-06-19T00:08:59;9.10;;;8.20;;
8171;SDS011;4127;47.908;10.850;2023-06-19T00:11:26;8.47;;;7.77;;
8171;SDS011;4127;47.908;10.850;2023-06-19T00:13:53;8.23;;;7.43;;
8171;SDS011;4127;47.908;10.850;2023-06-19T00:16:20;9.63;;;8.73;;
8171;SDS011;4127;47.908;10.850;2023-06-19T00:18:47;8.60;;;7.80;;
8171;SDS011;4127;47.908;10.850;2023-06-19T00:21:13;8.43;;;7.73;;
8171;SDS011;4127;47.908;10.850;2023-06-19T00:23:40;9.00;;;8.20;;
8171;SDS011;4127;47.908;10.850;2023-06-19T00:26:07;8.63;;;7.83;;
8171;SDS011;4127;47.908;10.850;2023-06-19T00:28:34;7.87;;;7.17;;
8171;SDS011;4127;47.908;10.850;2023-06-19T00:31:05;9.13;;;8.23;;
8171;SDS011;4127;47.908;10.850;2023-06-19T00:33:33;8.07;;;7.23;;
8171;SDS011;4127;47.908;10.850;2023-06-19T00:35:59;7.43;;;6.80;;
8171;SDS011;4127;47.908;10.850;2023-06-19T00:38:27;10.17;;;9.20;;
8171;SDS011;4127;47.908;10.850;2023-06-19T00:40:54;9.30;;;8.50;;
8171;SDS011;4127;47.908;10.850;2023-06-19T00:43:21;9.43;;;8.63;;
8171;SDS011;4127;47.908;10.850;2023-06-19T00:45:48;9.63;;;8.67;;
8171;SDS011;4127;47.908;10.850;2023-06-19T00:48:14;9.17;;;8.33;;
8171;SDS011;4127;47.908;10.850;2023-06-19T00:50:42;8.40;;;7.70;;
8171;SDS011;4127;47.908;10.850;2023-06-19T00:53:09;8.37;;;7.57;;
8171;SDS011;4127;47.908;10.850;2023-06-19T00:55:36;8.90;;;8.10;;
8171;SDS011;4127;47.908;10.850;2023-06-19T00:58:04;9.47;;;8.57;;
8171;SDS011;4127;47.908;10.850;2023-06-19T01:00:31;8.60;;;7.90;;
8171;SDS011;4127;47.908;10.850;2023-06-19T01:02:58;8.70;;;7.77;;
8171;SDS011;4127;47.908;10.850;2023-06-19T01:05:25;9.07;;;8.30;;
8171;SDS011;4127;47.908;10.850;2023-06-19T01:07:57;9.03;;;8.13;;
8171;SDS011;4127;47.908;10.850;2023-06-19T01:10:38;8.83;;;8.10;;
8171;SDS011;4127;47.908;10.850;2023-06-19T01:13:15;9.27;;;8.37;;
8171;SDS011;4127;47.908;10.850;2023-06-19T01:15:48;9.13;;;8.33;;
8171;SDS011;4127;47.908;10.850;2023-06-19T01:18:15;8.93;;;8.13;;
8171;SDS011;4127;47.908;10.850;2023-06-19T01:20:43;8.63;;;7.93;;
8171;SDS011;4127;47.908;10.850;2023-06-19T01:23:11;9.63;;;8.63;;
8171;SDS011;4127;47.908;10.850;2023-06-19T01:25:38;9.73;;;8.30;;
8171;SDS011;4127;47.908;10.850;2023-06-19T01:28:06;9.87;;;8.87;;
8171;SDS011;4127;47.908;10.850;2023-06-19T01:30:38;9.07;;;8.27;;
8171;SDS011;4127;47.908;10.850;2023-06-19T01:33:11;8.50;;;7.73;;
8171;SDS011;4127;47.908;10.850;2023-06-19T01:35:43;9.00;;;8.20;;
8171;SDS011;4127;47.908;10.850;2023-06-19T01:38:14;8.60;;;7.80;;
8171;SDS011;4127;47.908;10.850;2023-06-19T01:40:42;8.63;;;7.93;;
8171;SDS011;4127;47.908;10.850;2023-06-19T01:43:09;9.00;;;8.20;;
8171;SDS011;4127;47.908;10.850;2023-06-19T01:45:37;9.40;;;8.50;;
8171;SDS011;4127;47.908;10.850;2023-06-19T01:48:04;8.23;;;7.53;;
8171;SDS011;4127;47.908;10.850;2023-06-19T01:50:31;8.80;;;7.97;;
8171;SDS011;4127;47.908;10.850;2023-06-19T01:52:58;8.97;;;8.07;;
8171;SDS011;4127;47.908;10.850;2023-06-19T01:55:24;9.03;;;8.13;;
8171;SDS011;4127;47.908;10.850;2023-06-19T01:57:51;9.07;;;8.27;;
8171;SDS011;4127;47.908;10.850;2023-06-19T02:00:18;8.87;;;8.07;;
8171;SDS011;4127;47.908;10.850;2023-06-19T02:02:45;9.33;;;8.60;;
8171;SDS011;4127;47.908;10.850;2023-06-19T02:05:12;8.90;;;8.03;;
8171;SDS011;4127;47.908;10.850;2023-06-19T02:07:40;8.80;;;8.00;;
8171;SDS011;4127;47.908;10.850;2023-06-19T02:10:07;8.57;;;7.87;;
8171;SDS011;4127;47.908;10.850;2023-06-19T02:12:34;9.00;;;8.30;;
8171;SDS011;4127;47.908;10.850;2023-06-19T02:15:01;9.13;;;8.33;;
8171;SDS011;4127;47.908;10.850;2023-06-19T02:17:28;9.53;;;8.50;;
8171;SDS011;4127;47.908;10.850;2023-06-19T02:19:54;9.37;;;8.57;;
8171;SDS011;4127;47.908;10.850;2023-06-19T02:22:21;9.77;;;8.87;;
8171;SDS011;4127;47.908;10.850;2023-06-19T02:24:48;8.83;;;8.03;;
8171;SDS011;4127;47.908;10.850;2023-06-19T02:27:15;8.53;;;7.83;;
8171;SDS011;4127;47.908;10.850;2023-06-19T02:29:42;8.27;;;7.57;;
8171;SDS011;4127;47.908;10.850;2023-06-19T02:32:09;9.07;;;8.27;;
8171;SDS011;4127;47.908;10.850;2023-06-19T02:34:35;8.43;;;7.67;;
8171;SDS011;4127;47.908;10.850;2023-06-19T02:37:02;8.37;;;7.60;;
8171;SDS011;4127;47.908;10.850;2023-06-19T02:39:29;8.87;;;8.07;;
8171;SDS011;4127;47.908;10.850;2023-06-19T02:41:56;8.73;;;7.93;;
8171;SDS011;4127;47.908;10.850;2023-06-19T02:44:22;8.20;;;7.50;;
8171;SDS011;4127;47.908;10.850;2023-06-19T02:46:49;8.00;;;7.30;;
8171;SDS011;4127;47.908;10.850;2023-06-19T02:49:16;8.80;;;7.90;;
8171;SDS011;4127;47.908;10.850;2023-06-19T02:51:43;8.33;;;7.53;;
8171;SDS011;4127;47.908;10.850;2023-06-19T02:54:09;7.93;;;7.23;;
8171;SDS011;4127;47.908;10.850;2023-06-19T02:56:37;8.37;;;7.60;;
8171;SDS011;4127;47.908;10.850;2023-06-19T02:59:04;7.90;;;7.20;;
8171;SDS011;4127;47.908;10.850;2023-06-19T03:01:31;8.10;;;7.40;;
8171;SDS011;4127;47.908;10.850;2023-06-19T03:04:00;7.27;;;6.57;;
8171;SDS011;4127;47.908;10.850;2023-06-19T03:06:27;8.13;;;7.43;;
8171;SDS011;4127;47.908;10.850;2023-06-19T03:08:54;8.43;;;7.67;;
8171;SDS011;4127;47.908;10.850;2023-06-19T03:11:21;7.90;;;7.20;;
8171;SDS011;4127;47.908;10.850;2023-06-19T03:13:49;7.27;;;6.67;;
8171;SDS011;4127;47.908;10.850;2023-06-19T03:16:17;11.47;;;7.03;;
8171;SDS011;4127;47.908;10.850;2023-06-19T03:18:44;12.67;;;6.87;;
8171;SDS011;4127;47.908;10.850;2023-06-19T03:21:12;8.00;;;7.20;;
8171;SDS011;4127;47.908;10.850;2023-06-19T03:23:40;6.80;;;6.20;;
8171;SDS011;4127;47.908;10.850;2023-06-19T03:26:08;7.03;;;6.40;;
8171;SDS011;4127;47.908;10.850;2023-06-19T03:28:35;7.67;;;6.80;;
8171;SDS011;4127;47.908;10.850;2023-06-19T03:31:02;8.00;;;6.37;;
8171;SDS011;4127;47.908;10.850;2023-06-19T03:33:29;9.63;;;7.40;;
8171;SDS011;4127;47.908;10.850;2023-06-19T03:35:56;13.03;;;6.67;;
8171;SDS011;4127;47.908;10.850;2023-06-19T03:38:23;6.50;;;5.90;;
8171;SDS011;4127;47.908;10.850;2023-06-19T03:40:49;9.13;;;7.40;;
8171;SDS011;4127;47.908;10.850;2023-06-19T03:43:16;7.37;;;6.60;;
8171;SDS011;4127;47.908;10.850;2023-06-19T03:45:43;7.40;;;6.60;;
8171;SDS011;4127;47.908;10.850;2023-06-19T03:48:10;10.03;;;6.00;;
8171;SDS011;4127;47.908;10.850;2023-06-19T03:50:36;9.23;;;7.03;;
8171;SDS011;4127;47.908;10.850;2023-06-19T03:53:03;7.37;;;6.67;;
8171;SDS011;4127;47.908;10.850;2023-06-19T03:55:30;7.13;;;6.53;;
8171;SDS011;4127;47.908;10.850;2023-06-19T03:57:57;6.73;;;6.17;;
8171;SDS011;4127;47.908;10.850;2023-06-19T04:00:24;7.07;;;6.37;;
8171;SDS011;4127;47.908;10.850;2023-06-19T04:02:51;8.53;;;6.53;;
8171;SDS011;4127;47.908;10.850;2023-06-19T04:05:18;6.63;;;6.03;;
8171;SDS011;4127;47.908;10.850;2023-06-19T04:07:48;6.97;;;6.37;;
8171;SDS011;4127;47.908;10.850;2023-06-19T04:10:15;7.67;;;6.80;;
8171;SDS011;4127;47.908;10.850;2023-06-19T04:12:42;6.73;;;6.03;;
8171;SDS011;4127;47.908;10.850;2023-06-19T04:15:11;6.83;;;6.17;;
8171;SDS011;4127;47.908;10.850;2023-06-19T04:17:38;6.43;;;5.83;;
8171;SDS011;4127;47.908;10.850;2023-06-19T04:20:05;6.83;;;6.17;;
8171;SDS011;4127;47.908;10.850;2023-06-19T04:22:38;6.47;;;5.87;;
8171;SDS011;4127;47.908;10.850;2023-06-19T04:25:06;6.20;;;5.70;;
8171;SDS011;4127;47.908;10.850;2023-06-19T04:27:34;6.20;;;5.70;;
8171;SDS011;4127;47.908;10.850;2023-06-19T04:30:02;6.77;;;6.17;;
8171;SDS011;4127;47.908;10.850;2023-06-19T04:32:30;6.60;;;6.00;;
8171;SDS011;4127;47.908;10.850;2023-06-19T04:34:57;6.10;;;5.60;;
8171;SDS011;4127;47.908;10.850;2023-06-19T04:37:25;6.50;;;5.90;;
8171;SDS011;4127;47.908;10.850;2023-06-19T04:39:51;6.57;;;5.97;;
8171;SDS011;4127;47.908;10.850;2023-06-19T04:42:18;7.30;;;6.40;;
8171;SDS011;4127;47.908;10.850;2023-06-19T04:44:46;6.80;;;6.10;;
8171;SDS011;4127;47.908;10.850;2023-06-19T04:47:14;7.10;;;6.40;;
8171;SDS011;4127;47.908;10.850;2023-06-19T04:49:42;10.17;;;5.87;;
8171;SDS011;4127;47.908;10.850;2023-06-19T04:52:09;6.67;;;6.07;;
8171;SDS011;4127;47.908;10.850;2023-06-19T04:54:37;6.73;;;6.23;;
8171;SDS011;4127;47.908;10.850;2023-06-19T04:57:04;7.17;;;6.10;;
8171;SDS011;4127;47.908;10.850;2023-06-19T04:59:31;6.70;;;5.97;;
8171;SDS011;4127;47.908;10.850;2023-06-19T05:01:59;6.67;;;6.03;;
8171;SDS011;4127;47.908;10.850;2023-06-19T05:04:26;7.30;;;6.60;;
8171;SDS011;4127;47.908;10.850;2023-06-19T05:06:53;6.77;;;6.17;;
8171;SDS011;4127;47.908;10.850;2023-06-19T05:09:20;6.80;;;5.70;;
8171;SDS011;4127;47.908;10.850;2023-06-19T05:11:47;6.27;;;5.77;;
8171;SDS011;4127;47.908;10.850;2023-06-19T05:14:14;6.10;;;5.37;;
8171;SDS011;4127;47.908;10.850;2023-06-19T05:16:40;6.87;;;6.07;;
8171;SDS011;4127;47.908;10.850;2023-06-19T05:19:08;7.03;;;6.43;;
8171;SDS011;4127;47.908;10.850;2023-06-19T05:21:35;7.80;;;6.20;;
8171;SDS011;4127;47.908;10.850;2023-06-19T05:24:02;7.77;;;5.67;;
8171;SDS011;4127;47.908;10.850;2023-06-19T05:26:29;6.60;;;6.00;;
8171;SDS011;4127;47.908;10.850;2023-06-19T05:28:56;6.20;;;5.70;;
8171;SDS011;4127;47.908;10.850;2023-06-19T05:31:23;6.60;;;6.00;;
8171;SDS011;4127;47.908;10.850;2023-06-19T05:33:49;6.63;;;6.03;;
8171;SDS011;4127;47.908;10.850;2023-06-19T05:36:16;6.53;;;5.87;;
8171;SDS011;4127;47.908;10.850;2023-06-19T05:38:43;6.50;;;5.90;;
8171;SDS011;4127;47.908;10.850;2023-06-19T05:41:10;6.40;;;5.90;;
8171;SDS011;4127;47.908;10.850;2023-06-19T05:43:37;5.80;;;5.30;;
8171;SDS011;4127;47.908;10.850;2023-06-19T05:46:05;7.87;;;5.53;;
8171;SDS011;4127;47.908;10.850;2023-06-19T05:51:39;6.85;;;6.15;;
8171;SDS011;4127;47.908;10.850;2023-06-19T05:54:06;6.70;;;6.10;;
8171;SDS011;4127;47.908;10.850;2023-06-19T05:56:33;6.43;;;5.83;;
8171;SDS011;4127;47.908;10.850;2023-06-19T06:02:51;5.93;;;5.32;;
8171;SDS011;4127;47.908;10.850;2023-06-19T06:05:19;6.18;;;5.50;;
8171;SDS011;4127;47.908;10.850;2023-06-19T06:07:47;5.78;;;5.28;;
8171;SDS011;4127;47.908;10.850;2023-06-19T06:10:13;5.63;;;5.13;;
8171;SDS011;4127;47.908;10.850;2023-06-19T06:12:40;5.80;;;5.30;;
8171;SDS011;4127;47.908;10.850;2023-06-19T06:15:07;7.07;;;5.28;;
8171;SDS011;4127;47.908;10.850;2023-06-19T06:17:34;5.95;;;5.45;;
8171;SDS011;4127;47.908;10.850;2023-06-19T06:20:01;5.95;;;5.45;;
8171;SDS011;4127;47.908;10.850;2023-06-19T06:22:32;5.68;;;5.18;;
8171;SDS011;4127;47.908;10.850;2023-06-19T06:24:59;5.55;;;5.05;;
8171;SDS011;4127;47.908;10.850;2023-06-19T06:27:26;5.00;;;4.60;;
8171;SDS011;4127;47.908;10.850;2023-06-19T06:29:53;5.35;;;4.95;;
8171;SDS011;4127;47.908;10.850;2023-06-19T06:32:20;6.00;;;5.38;;
8171;SDS011;4127;47.908;10.850;2023-06-19T06:34:47;5.20;;;4.80;;
8171;SDS011;4127;47.908;10.850;2023-06-19T06:37:13;4.55;;;4.15;;
8171;SDS011;4127;47.908;10.850;2023-06-19T06:39:42;5.97;;;5.45;;
8171;SDS011;4127;47.908;10.850;2023-06-19T06:42:09;5.80;;;5.30;;
8171;SDS011;4127;47.908;10.850;2023-06-19T06:44:36;6.00;;;5.50;;
8171;SDS011;4127;47.908;10.850;2023-06-19T06:47:03;4.95;;;4.47;;
8171;SDS011;4127;47.908;10.850;2023-06-19T06:49:29;5.70;;;5.20;;
8171;SDS011;4127;47.908;10.850;2023-06-19T06:51:56;5.13;;;4.72;;
8171;SDS011;4127;47.908;10.850;2023-06-19T06:54:23;5.95;;;5.07;;
8171;SDS011;4127;47.908;10.850;2023-06-19T06:56:51;5.70;;;5.07;;
8171;SDS011;4127;47.908;10.850;2023-06-19T06:59:22;4.97;;;4.57;;
8171;SDS011;4127;47.908;10.850;2023-06-19T07:01:49;5.20;;;4.80;;
8171;SDS011;4127;47.908;10.850;2023-06-19T07:04:16;4.82;;;4.43;;
8171;SDS011;4127;47.908;10.850;2023-06-19T07:06:42;5.40;;;4.90;;
8171;SDS011;4127;47.908;10.850;2023-06-19T07:09:09;5.50;;;5.00;;
8171;SDS011;4127;47.908;10.850;2023-06-19T07:11:36;4.82;;;4.43;;
8171;SDS011;4127;47.908;10.850;2023-06-19T07:14:03;4.90;;;4.50;;
8171;SDS011;4127;47.908;10.850;2023-06-19T07:16:29;5.20;;;4.80;;
8171;SDS011;4127;47.908;10.850;2023-06-19T07:18:56;5.57;;;5.03;;
8171;SDS011;4127;47.908;10.850;2023-06-19T07:21:23;5.50;;;5.00;;
8171;SDS011;4127;47.908;10.850;2023-06-19T07:23:50;5.20;;;4.70;;
8171;SDS011;4127;47.908;10.850;2023-06-19T07:26:17;5.07;;;4.65;;
8171;SDS011;4127;47.908;10.850;2023-06-19T07:28:44;5.47;;;5.07;;
8171;SDS011;4127;47.908;10.850;2023-06-19T07:31:11;5.63;;;4.95;;
8171;SDS011;4127;47.908;10.850;2023-06-19T07:33:38;5.32;;;4.93;;
8171;SDS011;4127;47.908;10.850;2023-06-19T07:36:05;4.72;;;4.32;;
8171;SDS011;4127;47.908;10.850;2023-06-19T07:38:32;4.90;;;4.50;;
8171;SDS011;4127;47.908;10.850;2023-06-19T07:40:59;4.80;;;4.30;;
8171;SDS011;4127;47.908;10.850;2023-06-19T07:43:26;4.88;;;4.47;;
8171;SDS011;4127;47.908;10.850;2023-06-19T07:45:52;4.30;;;3.95;;
8171;SDS011;4127;47.908;10.850;2023-06-19T07:48:19;4.53;;;4.13;;
8171;SDS011;4127;47.908;10.850;2023-06-19T07:50:46;4.63;;;4.22;;
8171;SDS011;4127;47.908;10.850;2023-06-19T07:53:13;4.80;;;4.40;;
8171;SDS011;4127;47.908;10.850;2023-06-19T07:55:40;5.18;;;4.72;;
8171;SDS011;4127;47.908;10.850;2023-06-19T07:58:07;4.40;;;4.10;;
8171;SDS011;4127;47.908;10.850;2023-06-19T08:00:34;4.90;;;4.50;;
8171;SDS011;4127;47.908;10.850;2023-06-19T08:03:01;4.90;;;4.50;;
8171;SDS011;4127;47.908;10.850;2023-06-19T08:05:28;5.38;;;4.88;;
8171;SDS011;4127;47.908;10.850;2023-06-19T08:07:56;5.50;;;5.10;;
8171;SDS011;4127;47.908;10.850;2023-06-19T08:10:24;5.35;;;4.85;;
8171;SDS011;4127;47.908;10.850;2023-06-19T08:12:51;6.25;;;5.75;;
8171;SDS011;4127;47.908;10.850;2023-06-19T08:15:19;5.90;;;5.20;;
8171;SDS011;4127;47.908;10.850;2023-06-19T08:17:46;5.65;;;5.15;;
8171;SDS011;4127;47.908;10.850;2023-06-19T08:20:13;5.60;;;5.05;;
8171;SDS011;4127;47.908;10.850;2023-06-19T08:22:40;6.03;;;5.50;;
8171;SDS011;4127;47.908;10.850;2023-06-19T08:25:07;5.30;;;4.90;;
8171;SDS011;4127;47.908;10.850;2023-06-19T08:27:34;5.40;;;4.90;;
8171;SDS011;4127;47.908;10.850;2023-06-19T08:30:00;5.50;;;5.00;;
8171;SDS011;4127;47.908;10.850;2023-06-19T08:32:27;5.60;;;5.10;;
8171;SDS011;4127;47.908;10.850;2023-06-19T08:34:54;5.60;;;5.10;;
8171;SDS011;4127;47.908;10.850;2023-06-19T08:37:21;4.85;;;4.45;;
8171;SDS011;4127;47.908;10.850;2023-06-19T08:39:48;4.50;;;4.10;;
8171;SDS011;4127;47.908;10.850;2023-06-19T08:42:15;4.45;;;4.10;;
8171;SDS011;4127;47.908;10.850;2023-06-19T08:44:42;4.68;;;4.32;;
8171;SDS011;4127;47.908;10.850;2023-06-19T08:47:09;4.93;;;4.53;;
8171;SDS011;4127;47.908;10.850;2023-06-19T08:49:36;4.85;;;4.45;;
8171;SDS011;4127;47.908;10.850;2023-06-19T08:52:03;4.72;;;4.32;;
8171;SDS011;4127;47.908;10.850;2023-06-19T08:54:31;4.43;;;4.13;;
8171;SDS011;4127;47.908;10.850;2023-06-19T08:57:01;4.43;;;4.03;;
8171;SDS011;4127;47.908;10.850;2023-06-19T08:59:29;3.85;;;3.55;;
8171;SDS011;4127;47.908;10.850;2023-06-19T09:01:58;3.70;;;3.40;;
8171;SDS011;4127;47.908;10.850;2023-06-19T09:04:25;3.42;;;3.17;;
8171;SDS011;4127;47.908;10.850;2023-06-19T09:06:54;3.55;;;3.22;;
8171;SDS011;4127;47.908;10.850;2023-06-19T09:09:23;3.80;;;3.50;;
8171;SDS011;4127;47.908;10.850;2023-06-19T09:11:58;3.83;;;3.53;;
8171;SDS011;4127;47.908;10.850;2023-06-19T09:14:43;3.53;;;3.30;;
8171;SDS011;4127;47.908;10.850;2023-06-19T09:17:20;3.50;;;3.20;;
8171;SDS011;4127;47.908;10.850;2023-06-19T09:19:48;3.78;;;3.47;;
8171;SDS011;4127;47.908;10.850;2023-06-19T09:22:20;3.90;;;3.60;;
8171;SDS011;4127;47.908;10.850;2023-06-19T09:24:49;3.50;;;3.20;;
8171;SDS011;4127;47.908;10.850;2023-06-19T09:27:17;3.70;;;3.40;;
8171;SDS011;4127;47.908;10.850;2023-06-19T09:29:46;3.58;;;3.28;;
8171;SDS011;4127;47.908;10.850;2023-06-19T09:34:44;3.60;;;3.30;;
8171;SDS011;4127;47.908;10.850;2023-06-19T09:37:12;3.40;;;3.10;;
8171;SDS011;4127;47.908;10.850;2023-06-19T09:39:40;4.28;;;3.58;;
8171;SDS011;4127;47.908;10.850;2023-06-19T09:42:08;4.07;;;3.60;;
8171;SDS011;4127;47.908;10.850;2023-06-19T09:44:39;3.65;;;3.30;;
8171;SDS011;4127;47.908;10.850;2023-06-19T09:47:17;3.50;;;3.30;;
8171;SDS011;4127;47.908;10.850;2023-06-19T09:49:49;2.80;;;2.60;;
8171;SDS011;4127;47.908;10.850;2023-06-19T09:52:20;3.28;;;3.00;;
8171;SDS011;4127;47.908;10.850;2023-06-19T09:54:50;3.20;;;2.90;;
8171;SDS011;4127;47.908;10.850;2023-06-19T09:57:18;3.38;;;3.08;;
8171;SDS011;4127;47.908;10.850;2023-06-19T09:59:46;3.38;;;3.08;;
8171;SDS011;4127;47.908;10.850;2023-06-19T10:02:16;3.22;;;3.03;;
8171;SDS011;4127;47.908;10.850;2023-06-19T10:04:45;3.63;;;3.33;;
8171;SDS011;4127;47.908;10.850;2023-06-19T10:07:19;3.17;;;2.97;;
8171;SDS011;4127;47.908;10.850;2023-06-19T10:09:57;3.47;;;3.17;;
8171;SDS011;4127;47.908;10.850;2023-06-19T10:12:34;3.50;;;3.20;;
8171;SDS011;4127;47.908;10.850;2023-06-19T10:17:49;3.80;;;3.50;;
8171;SDS011;4127;47.908;10.850;2023-06-19T10:20:30;3.40;;;3.20;;
8171;SDS011;4127;47.908;10.850;2023-06-19T10:23:16;3.70;;;3.40;;
8171;SDS011;4127;47.908;10.850;2023-06-19T10:25:47;3.78;;;3.47;;
8171;SDS011;4127;47.908;10.850;2023-06-19T10:28:16;3.33;;;3.13;;
8171;SDS011;4127;47.908;10.850;2023-06-19T10:33:28;3.63;;;2.95;;
8171;SDS011;4127;47.908;10.850;2023-06-19T10:35:56;4.05;;;3.60;;
8171;SDS011;4127;47.908;10.850;2023-06-19T10:38:26;3.63;;;3.33;;
8171;SDS011;4127;47.908;10.850;2023-06-19T10:40:53;3.30;;;3.00;;
8171;SDS011;4127;47.908;10.850;2023-06-19T10:43:20;3.67;;;3.38;;
8171;SDS011;4127;47.908;10.850;2023-06-19T10:45:49;3.50;;;3.08;;
8171;SDS011;4127;47.908;10.850;2023-06-19T10:48:20;3.25;;;3.05;;
8171;SDS011;4127;47.908;10.850;2023-06-19T10:50:49;2.88;;;2.67;;
8171;SDS011;4127;47.908;10.850;2023-06-19T10:53:26;2.65;;;2.45;;
8171;SDS011;4127;47.908;10.850;2023-06-19T10:55:58;2.72;;;2.45;;
8171;SDS011;4127;47.908;10.850;2023-06-19T10:58:27;3.03;;;2.83;;
8171;SDS011;4127;47.908;10.850;2023-06-19T11:00:55;2.72;;;2.53;;
8171;SDS011;4127;47.908;10.850;2023-06-19T11:03:23;2.90;;;2.70;;
8171;SDS011;4127;47.908;10.850;2023-06-19T11:05:50;3.28;;;3.00;;
8171;SDS011;4127;47.908;10.850;2023-06-19T11:08:18;4.28;;;3.22;;
8171;SDS011;4127;47.908;10.850;2023-06-19T11:10:45;4.40;;;3.97;;
8171;SDS011;4127;47.908;10.850;2023-06-19T11:13:16;4.32;;;3.35;;
8171;SDS011;4127;47.908;10.850;2023-06-19T11:15:49;3.53;;;3.28;;
8171;SDS011;4127;47.908;10.850;2023-06-19T11:18:18;3.85;;;3.55;;
8171;SDS011;4127;47.908;10.850;2023-06-19T11:20:49;3.03;;;2.80;;
8171;SDS011;4127;47.908;10.850;2023-06-19T11:23:24;7.18;;;3.03;;
8171;SDS011;4127;47.908;10.850;2023-06-19T11:26:05;3.30;;;3.00;;
8171;SDS011;4127;47.908;10.850;2023-06-19T11:28:33;3.13;;;2.92;;
8171;SDS011;4127;47.908;10.850;2023-06-19T11:31:00;2.67;;;2.47;;
8171;SDS011;4127;47.908;10.850;2023-06-19T11:33:31;2.92;;;2.72;;
8171;SDS011;4127;47.908;10.850;2023-06-19T11:36:00;3.45;;;3.20;;
8171;SDS011;4127;47.908;10.850;2023-06-19T11:38:28;3.58;;;3.28;;
8171;SDS011;4127;47.908;10.850;2023-06-19T11:40:55;3.28;;;2.97;;
8171;SDS011;4127;47.908;10.850;2023-06-19T11:43:27;5.45;;;3.13;;
8171;SDS011;4127;47.908;10.850;2023-06-19T11:46:02;10.13;;;3.42;;
8171;SDS011;4127;47.908;10.850;2023-06-19T11:48:30;6.38;;;3.63;;
8171;SDS011;4127;47.908;10.850;2023-06-19T11:50:57;3.83;;;3.53;;
8171;SDS011;4127;47.908;10.850;2023-06-19T11:53:24;3.45;;;3.20;;
8171;SDS011;4127;47.908;10.850;2023-06-19T11:55:51;4.80;;;3.60;;
8171;SDS011;4127;47.908;10.850;2023-06-19T11:58:18;3.35;;;3.05;;
8171;SDS011;4127;47.908;10.850;2023-06-19T12:00:48;3.70;;;2.83;;
8171;SDS011;4127;47.908;10.850;2023-06-19T12:03:15;2.80;;;2.60;;
8171;SDS011;4127;47.908;10.850;2023-06-19T12:05:42;2.88;;;2.65;;
8171;SDS011;4127;47.908;10.850;2023-06-19T12:08:09;3.40;;;3.10;;
8171;SDS011;4127;47.908;10.850;2023-06-19T12:10:36;3.53;;;3.22;;
8171;SDS011;4127;47.908;10.850;2023-06-19T12:13:03;3.50;;;3.20;;
8171;SDS011;4127;47.908;10.850;2023-06-19T12:15:30;2.88;;;2.67;;
8171;SDS011;4127;47.908;10.850;2023-06-19T12:17:57;3.00;;;2.80;;
8171;SDS011;4127;47.908;10.850;2023-06-19T12:20:24;3.92;;;3.53;;
8171;SDS011;4127;47.908;10.850;2023-06-19T12:22:52;3.28;;;3.00;;
8171;SDS011;4127;47.908;10.850;2023-06-19T12:25:19;3.38;;;3.17;;
8171;SDS011;4127;47.908;10.850;2023-06-19T12:27:46;4.30;;;2.95;;
8171;SDS011;4127;47.908;10.850;2023-06-19T12:30:20;3.25;;;3.05;;
8171;SDS011;4127;47.908;10.850;2023-06-19T12:32:47;3.53;;;3.33;;
8171;SDS011;4127;47.908;10.850;2023-06-19T12:35:15;3.15;;;2.85;;
8171;SDS011;4127;47.908;10.850;2023-06-19T12:37:41;3.40;;;3.10;;
8171;SDS011;4127;47.908;10.850;2023-06-19T12:40:08;3.78;;;3.15;;
8171;SDS011;4127;47.908;10.850;2023-06-19T12:42:37;3.17;;;2.88;;
8171;SDS011;4127;47.908;10.850;2023-06-19T12:45:04;3.60;;;3.30;;
8171;SDS011;4127;47.908;10.850;2023-06-19T12:47:31;4.72;;;3.60;;
8171;SDS011;4127;47.908;10.850;2023-06-19T12:49:58;3.85;;;3.55;;
8171;SDS011;4127;47.908;10.850;2023-06-19T12:52:33;3.65;;;3.35;;
8171;SDS011;4127;47.908;10.850;2023-06-19T12:55:20;3.47;;;3.17;;
8171;SDS011;4127;47.908;10.850;2023-06-19T12:57:47;3.80;;;3.50;;
8171;SDS011;4127;47.908;10.850;2023-06-19T13:00:14;3.08;;;2.88;;
8171;SDS011;4127;47.908;10.850;2023-06-19T13:02:43;4.47;;;3.50;;
8171;SDS011;4127;47.908;10.850;2023-06-19T13:08:06;3.30;;;3.10;;
8171;SDS011;4127;47.908;10.850;2023-06-19T13:10:33;3.15;;;2.95;;
8171;SDS011;4127;47.908;10.850;2023-06-19T13:13:01;3.80;;;3.50;;
8171;SDS011;4127;47.908;10.850;2023-06-19T13:15:27;3.30;;;3.10;;
8171;SDS011;4127;47.908;10.850;2023-06-19T13:17:54;2.95;;;2.75;;
8171;SDS011;4127;47.908;10.850;2023-06-19T13:20:21;3.13;;;2.90;;
8171;SDS011;4127;47.908;10.850;2023-06-19T13:22:48;3.58;;;3.35;;
8171;SDS011;4127;47.908;10.850;2023-06-19T13:25:15;3.53;;;3.22;;
8171;SDS011;4127;47.908;10.850;2023-06-19T13:27:42;3.88;;;3.47;;
8171;SDS011;4127;47.908;10.850;2023-06-19T13:30:09;3.67;;;3.38;;
8171;SDS011;4127;47.908;10.850;2023-06-19T13:32:36;3.22;;;3.03;;
8171;SDS011;4127;47.908;10.850;2023-06-19T13:35:07;3.00;;;2.80;;
8171;SDS011;4127;47.908;10.850;2023-06-19T13:37:35;3.58;;;3.38;;
8171;SDS011;4127;47.908;10.850;2023-06-19T13:40:02;3.22;;;3.03;;
8171;SDS011;4127;47.908;10.850;2023-06-19T13:42:30;3.33;;;3.13;;
8171;SDS011;4127;47.908;10.850;2023-06-19T13:44:57;3.17;;;2.97;;
8171;SDS011;4127;47.908;10.850;2023-06-19T13:47:24;3.83;;;3.53;;
8171;SDS011;4127;47.908;10.850;2023-06-19T13:49:53;3.67;;;3.33;;
8171;SDS011;4127;47.908;10.850;2023-06-19T13:52:21;3.22;;;2.92;;
8171;SDS011;4127;47.908;10.850;2023-06-19T13:54:49;3.20;;;2.95;;
8171;SDS011;4127;47.908;10.850;2023-06-19T13:57:16;3.55;;;3.03;;
8171;SDS011;4127;47.908;10.850;2023-06-19T13:59:43;3.13;;;2.92;;
8171;SDS011;4127;47.908;10.850;2023-06-19T14:02:10;3.72;;;3.03;;
8171;SDS011;4127;47.908;10.850;2023-06-19T14:04:37;3.63;;;3.13;;
8171;SDS011;4127;47.908;10.850;2023-06-19T14:07:04;3.80;;;3.47;;
8171;SDS011;4127;47.908;10.850;2023-06-19T14:09:31;3.53;;;3.22;;
8171;SDS011;4127;47.908;10.850;2023-06-19T14:11:58;3.58;;;3.28;;
8171;SDS011;4127;47.908;10.850;2023-06-19T14:14:25;3.20;;;3.00;;
8171;SDS011;4127;47.908;10.850;2023-06-19T14:16:52;3.70;;;3.40;;
8171;SDS011;4127;47.908;10.850;2023-06-19T14:19:19;3.42;;;3.20;;
8171;SDS011;4127;47.908;10.850;2023-06-19T14:21:46;3.45;;;3.15;;
8171;SDS011;4127;47.908;10.850;2023-06-19T14:24:13;3.13;;;2.92;;
8171;SDS011;4127;47.908;10.850;2023-06-19T14:26:40;3.08;;;2.88;;
8171;SDS011;4127;47.908;10.850;2023-06-19T14:29:07;3.92;;;3.63;;
8171;SDS011;4127;47.908;10.850;2023-06-19T14:31:34;3.10;;;2.90;;
8171;SDS011;4127;47.908;10.850;2023-06-19T14:34:01;3.63;;;3.33;;
8171;SDS011;4127;47.908;10.850;2023-06-19T14:36:28;3.50;;;3.20;;
8171;SDS011;4127;47.908;10.850;2023-06-19T14:38:55;3.50;;;3.20;;
8171;SDS011;4127;47.908;10.850;2023-06-19T14:41:22;3.00;;;2.80;;
8171;SDS011;4127;47.908;10.850;2023-06-19T14:43:49;3.38;;;3.08;;
8171;SDS011;4127;47.908;10.850;2023-06-19T14:46:15;4.32;;;3.30;;
8171;SDS011;4127;47.908;10.850;2023-06-19T14:49:02;3.88;;;3.58;;
8171;SDS011;4127;47.908;10.850;2023-06-19T14:51:29;3.33;;;3.13;;
8171;SDS011;4127;47.908;10.850;2023-06-19T14:53:55;3.20;;;3.00;;
8171;SDS011;4127;47.908;10.850;2023-06-19T14:56:22;3.30;;;3.10;;
8171;SDS011;4127;47.908;10.850;2023-06-19T14:58:49;3.72;;;3.42;;
8171;SDS011;4127;47.908;10.850;2023-06-19T15:01:16;3.63;;;2.95;;
8171;SDS011;4127;47.908;10.850;2023-06-19T15:03:43;3.45;;;3.15;;
8171;SDS011;4127;47.908;10.850;2023-06-19T15:06:10;3.15;;;2.95;;
8171;SDS011;4127;47.908;10.850;2023-06-19T15:08:37;3.22;;;3.00;;
8171;SDS011;4127;47.908;10.850;2023-06-19T15:11:05;3.45;;;3.15;;
8171;SDS011;4127;47.908;10.850;2023-06-19T15:13:32;3.00;;;2.80;;
8171;SDS011;4127;47.908;10.850;2023-06-19T15:15:59;4.25;;;3.95;;
8171;SDS011;4127;47.908;10.850;2023-06-19T15:18:26;3.47;;;3.20;;
8171;SDS011;4127;47.908;10.850;2023-06-19T15:20:53;4.00;;;3.70;;
8171;SDS011;4127;47.908;10.850;2023-06-19T15:23:20;3.08;;;2.88;;